createdAt,value
2019-02-26T00:01:48.575Z,2.96
2019-02-26T00:04:16.539Z,2.28
2019-02-26T00:06:49.018Z,2.01
2019-02-26T00:09:22.393Z,2.48
2019-02-26T00:11:50.287Z,2.59
2019-02-26T00:14:20.756Z,2.76
2019-02-26T00:16:51.907Z,2.78
2019-02-26T00:19:22.098Z,2.69
2019-02-26T00:21:54.321Z,2.66
2019-02-26T00:24:23.881Z,2.46
2019-02-26T00:26:53.780Z,2.64
2019-02-26T00:29:25.347Z,2.67
2019-02-26T00:31:57.714Z,2.33
2019-02-26T00:34:27.661Z,2.29
2019-02-26T00:36:59.567Z,2.43
2019-02-26T00:39:31.381Z,2.49
2019-02-26T00:42:02.746Z,2.50
2019-02-26T00:44:35.297Z,2.47
2019-02-26T00:47:06.677Z,2.52
2019-02-26T00:49:37.010Z,2.56
2019-02-26T00:52:08.696Z,2.64
2019-02-26T00:54:39.006Z,2.31
2019-02-26T00:57:11.543Z,2.36
2019-02-26T00:59:42.002Z,2.56
2019-02-26T01:02:13.243Z,2.46
2019-02-26T01:04:44.558Z,2.58
2019-02-26T01:07:15.366Z,2.63
2019-02-26T01:09:45.444Z,2.61
2019-02-26T01:12:16.630Z,2.62
2019-02-26T01:14:48.093Z,2.34
2019-02-26T01:17:18.973Z,2.19
2019-02-26T01:19:49.201Z,2.12
2019-02-26T01:22:19.400Z,2.24
2019-02-26T01:24:49.863Z,2.46
2019-02-26T01:27:20.981Z,2.33
2019-02-26T01:29:53.432Z,1.52
2019-02-26T01:32:24.886Z,1.78
2019-02-26T01:34:54.927Z,1.82
2019-02-26T01:37:25.312Z,2.10
2019-02-26T01:39:56.756Z,2.20
2019-02-26T01:42:27.555Z,2.10
2019-02-26T01:44:58.651Z,1.56
2019-02-26T01:47:28.658Z,1.76
2019-02-26T01:49:59.447Z,2.05
2019-02-26T01:52:29.545Z,2.07
2019-02-26T01:55:00.630Z,2.09
2019-02-26T01:57:31.618Z,2.05
2019-02-26T02:00:01.503Z,2.20
2019-02-26T02:02:31.377Z,2.05
2019-02-26T02:05:03.141Z,1.67
2019-02-26T02:07:33.481Z,1.58
2019-02-26T02:10:03.540Z,1.71
2019-02-26T02:12:34.393Z,1.91
2019-02-26T02:15:08.077Z,1.59
2019-02-26T02:17:40.065Z,1.70
2019-02-26T02:20:13.128Z,1.73
2019-02-26T02:22:44.463Z,1.81
2019-02-26T02:25:14.894Z,1.76
2019-02-26T02:27:47.566Z,1.79
2019-02-26T02:30:22.729Z,1.59
2019-02-26T02:32:54.054Z,1.78
2019-02-26T02:35:21.630Z,1.94
2019-02-26T02:37:53.533Z,2.01
2019-02-26T02:40:23.581Z,2.03
2019-02-26T02:42:53.767Z,1.98
2019-02-26T02:45:23.899Z,1.90
2019-02-26T02:47:57.854Z,1.86
2019-02-26T02:50:25.745Z,1.74
2019-02-26T02:52:56.964Z,1.56
2019-02-26T02:55:27.668Z,1.53
2019-02-26T02:57:59.985Z,1.64
2019-02-26T03:00:32.219Z,1.75
2019-02-26T03:03:01.469Z,1.78
2019-02-26T03:05:34.163Z,1.80
2019-02-26T03:08:03.272Z,1.96
2019-02-26T03:10:34.611Z,1.60
2019-02-26T03:13:05.159Z,1.71
2019-02-26T03:15:35.909Z,1.85
2019-02-26T03:18:08.613Z,1.57
2019-02-26T03:20:40.312Z,1.65
2019-02-26T03:23:12.369Z,1.08
2019-02-26T03:25:44.307Z,1.06
2019-02-26T03:28:14.119Z,1.47
2019-02-26T03:30:44.706Z,1.62
2019-02-26T03:33:14.741Z,1.75
2019-02-26T03:35:44.941Z,1.74
2019-02-26T03:38:17.494Z,1.73
2019-02-26T03:40:49.268Z,1.72
2019-02-26T03:43:18.787Z,1.62
2019-02-26T03:45:48.988Z,1.65
2019-02-26T03:48:20.118Z,1.63
2019-02-26T03:50:50.732Z,1.60
2019-02-26T03:53:25.517Z,1.58
2019-02-26T03:55:52.631Z,1.21
2019-02-26T03:58:23.026Z,0.50
2019-02-26T04:00:53.208Z,0.50
2019-02-26T04:03:23.411Z,0.72
2019-02-26T04:05:57.137Z,0.73
2019-02-26T04:08:27.156Z,0.74
2019-02-26T04:10:59.352Z,0.70
2019-02-26T04:13:29.055Z,0.52
2019-02-26T04:15:59.598Z,0.57
2019-02-26T04:18:34.174Z,0.61
2019-02-26T04:21:05.662Z,0.67
2019-02-26T04:23:36.132Z,0.62
2019-02-26T04:26:46.129Z,0.56
2019-02-26T04:29:35.451Z,0.56
2019-02-26T04:32:46.152Z,0.53
2019-02-26T04:35:44.898Z,0.44
2019-02-26T04:39:07.489Z,0.42
2019-02-26T04:41:51.035Z,0.05
2019-02-26T04:45:16.761Z,-0.33
2019-02-26T04:47:49.516Z,-0.39
2019-02-26T04:50:23.040Z,-0.56
2019-02-26T04:52:50.680Z,-0.34
2019-02-26T04:55:20.899Z,-0.07
2019-02-26T04:57:54.057Z,0.05
2019-02-26T05:00:26.999Z,0.06
2019-02-26T05:02:55.882Z,0.07
2019-02-26T05:05:28.526Z,0.07
2019-02-26T05:07:57.961Z,0.02
2019-02-26T05:10:29.773Z,-0.21
2019-02-26T05:13:01.016Z,-0.02
2019-02-26T05:15:33.250Z,0.04
2019-02-26T05:18:03.354Z,0.15
2019-02-26T05:20:34.823Z,-0.01
2019-02-26T05:23:06.291Z,0.07
2019-02-26T05:25:37.350Z,0.21
2019-02-26T05:28:11.411Z,0.41
2019-02-26T05:30:43.217Z,0.01
2019-02-26T05:33:12.494Z,0.70
2019-02-26T05:35:45.618Z,0.06
2019-02-26T05:38:14.236Z,0.05
2019-02-26T05:40:45.191Z,0.28
2019-02-26T05:43:16.438Z,-0.16
2019-02-26T05:45:48.459Z,-0.11
2019-02-26T05:48:20.453Z,0.15
2019-02-26T05:50:49.974Z,0.07
2019-02-26T05:53:20.174Z,0.03
2019-02-26T05:55:51.253Z,0.26
2019-02-26T05:58:22.695Z,0.46
2019-02-26T06:00:53.075Z,0.14
2019-02-26T06:03:23.067Z,0.40
2019-02-26T06:05:55.488Z,0.53
2019-02-26T06:08:26.679Z,0.88
2019-02-26T06:10:57.079Z,1.18
2019-02-26T06:13:29.169Z,1.71
2019-02-26T06:16:02.269Z,2.01
2019-02-26T06:18:31.801Z,2.66
2019-02-26T06:21:02.355Z,2.96
2019-02-26T06:23:34.488Z,3.15
2019-02-26T06:26:28.140Z,3.77
2019-02-26T06:28:57.500Z,4.50
2019-02-26T06:31:27.842Z,4.87
2019-02-26T06:34:01.529Z,4.88
2019-02-26T06:36:30.620Z,4.92
2019-02-26T06:39:02.002Z,5.10
2019-02-26T06:41:33.758Z,5.53
2019-02-26T06:44:04.228Z,6.05
2019-02-26T06:46:35.866Z,6.01
2019-02-26T06:49:06.505Z,6.07
2019-02-26T06:51:36.998Z,6.32
2019-02-26T06:54:07.355Z,6.69
2019-02-26T06:56:41.417Z,6.49
2019-02-26T06:59:12.246Z,7.06
2019-02-26T07:01:42.812Z,7.08
2019-02-26T07:04:13.102Z,6.98
2019-02-26T07:06:43.107Z,7.37
2019-02-26T07:09:13.790Z,7.80
2019-02-26T07:11:45.111Z,8.63
2019-02-26T07:14:15.332Z,8.41
2019-02-26T07:16:45.440Z,8.32
2019-02-26T07:19:16.702Z,7.37
2019-02-26T07:21:48.140Z,8.90
2019-02-26T07:24:20.534Z,8.79
2019-02-26T07:26:50.677Z,9.14
2019-02-26T07:29:21.185Z,9.22
2019-02-26T07:31:51.923Z,9.08
2019-02-26T07:34:24.932Z,9.91
2019-02-26T07:36:54.981Z,10.05
2019-02-26T07:39:25.207Z,10.05
2019-02-26T07:41:55.219Z,10.63
2019-02-26T07:44:26.468Z,11.06
2019-02-26T07:46:58.815Z,11.97
2019-02-26T07:49:29.035Z,12.20
2019-02-26T07:52:00.290Z,12.83
2019-02-26T07:54:30.927Z,12.29
2019-02-26T07:57:02.678Z,11.98
2019-02-26T07:59:34.862Z,12.15
2019-02-26T08:02:06.391Z,12.34
2019-02-26T08:04:38.771Z,12.94
2019-02-26T08:07:08.612Z,13.41
2019-02-26T08:09:38.611Z,13.80
2019-02-26T08:12:11.101Z,13.96
2019-02-26T08:14:42.760Z,14.07
2019-02-26T08:17:12.516Z,14.07
2019-02-26T08:19:46.379Z,14.44
2019-02-26T08:22:14.598Z,14.46
2019-02-26T08:24:46.083Z,15.03
2019-02-26T08:27:16.553Z,14.92
2019-02-26T08:29:46.815Z,15.20
2019-02-26T08:32:18.849Z,14.08
2019-02-26T08:34:49.249Z,14.68
2019-02-26T08:37:19.365Z,15.34
2019-02-26T08:39:49.548Z,15.58
2019-02-26T08:42:19.537Z,16.23
2019-02-26T08:44:51.304Z,15.63
2019-02-26T08:47:23.387Z,15.06
2019-02-26T08:49:53.472Z,15.84
2019-02-26T08:52:25.008Z,16.67
2019-02-26T08:54:55.180Z,16.45
2019-02-26T08:57:25.373Z,17.58
2019-02-26T08:59:55.570Z,17.50
2019-02-26T09:02:25.458Z,17.93
2019-02-26T09:04:55.499Z,17.84
2019-02-26T09:07:26.282Z,18.16
2019-02-26T09:09:57.558Z,17.89
2019-02-26T09:12:28.056Z,18.75
2019-02-26T09:14:58.060Z,19.21
2019-02-26T09:17:31.868Z,19.82
2019-02-26T09:20:09.216Z,19.83
2019-02-26T09:22:31.891Z,18.47
2019-02-26T09:25:02.656Z,18.67
2019-02-26T09:27:35.098Z,18.68
2019-02-26T09:30:06.580Z,19.37
2019-02-26T09:32:39.680Z,20.77
2019-02-26T09:35:10.742Z,20.46
2019-02-26T09:37:42.816Z,21.14
2019-02-26T09:40:14.210Z,20.54
2019-02-26T09:42:46.334Z,20.04
2019-02-26T09:45:20.395Z,20.10
2019-02-26T09:47:51.981Z,21.87
2019-02-26T09:50:22.633Z,21.97
2019-02-26T09:52:55.769Z,23.37
2019-02-26T09:55:24.943Z,22.24
2019-02-26T09:57:54.938Z,23.71
2019-02-26T10:00:28.565Z,23.33
2019-02-26T10:02:56.982Z,23.26
2019-02-26T10:05:27.184Z,22.50
2019-02-26T10:08:00.027Z,23.71
2019-02-26T10:10:31.200Z,21.88
2019-02-26T10:13:02.838Z,21.71
2019-02-26T10:15:34.782Z,23.26
2019-02-26T10:18:06.717Z,22.93
2019-02-26T10:20:36.452Z,22.66
2019-02-26T10:23:06.665Z,24.36
2019-02-26T10:25:38.920Z,24.62
2019-02-26T10:28:11.575Z,23.97
2019-02-26T10:30:41.815Z,23.28
2019-02-26T10:33:17.435Z,22.70
2019-02-26T10:35:47.589Z,22.35
2019-02-26T10:38:17.946Z,22.64
2019-02-26T10:40:53.886Z,23.51
2019-02-26T10:43:19.901Z,23.38
2019-02-26T10:45:50.555Z,23.72
2019-02-26T10:48:24.528Z,23.89
2019-02-26T10:50:53.864Z,23.96
2019-02-26T10:53:23.902Z,24.92
2019-02-26T10:55:54.008Z,25.65
2019-02-26T10:58:24.232Z,23.48
2019-02-26T11:00:58.082Z,23.54
2019-02-26T11:03:26.679Z,24.56
2019-02-26T11:05:56.826Z,24.11
2019-02-26T11:08:29.692Z,24.34
2019-02-26T11:10:58.995Z,24.77
2019-02-26T11:13:28.934Z,24.56
2019-02-26T11:16:02.785Z,23.45
2019-02-26T11:18:30.866Z,23.38
2019-02-26T11:21:00.939Z,25.01
2019-02-26T11:23:33.864Z,26.17
2019-02-26T11:26:04.183Z,25.88
2019-02-26T11:28:38.069Z,23.98
2019-02-26T11:31:09.022Z,22.09
2019-02-26T11:33:39.534Z,22.57
2019-02-26T11:36:11.131Z,23.26
2019-02-26T11:38:42.163Z,23.25
2019-02-26T11:41:13.407Z,22.50
2019-02-26T11:43:43.636Z,22.17
2019-02-26T11:46:13.841Z,23.21
2019-02-26T11:48:45.658Z,23.83
2019-02-26T11:51:17.671Z,24.60
2019-02-26T11:53:47.545Z,23.52
2019-02-26T11:56:20.688Z,24.37
2019-02-26T11:58:49.535Z,25.77
2019-02-26T12:01:19.734Z,25.56
2019-02-26T12:03:49.658Z,26.07
2019-02-26T12:06:19.684Z,25.05
2019-02-26T12:08:50.098Z,24.17
2019-02-26T12:11:23.099Z,23.20
2019-02-26T12:13:53.160Z,23.87
2019-02-26T12:16:23.437Z,22.56
2019-02-26T12:18:53.699Z,22.41
2019-02-26T12:21:25.227Z,22.53
2019-02-26T12:23:55.640Z,22.11
2019-02-26T12:26:27.942Z,22.68
2019-02-26T12:28:59.512Z,22.87
2019-02-26T12:31:31.782Z,22.75
2019-02-26T12:34:01.302Z,22.65
2019-02-26T12:36:32.649Z,22.86
2019-02-26T12:39:03.432Z,23.11
2019-02-26T12:41:36.578Z,22.36
2019-02-26T12:44:10.384Z,20.62
2019-02-26T12:46:38.071Z,21.12
2019-02-26T12:49:09.478Z,20.53
2019-02-26T12:51:40.186Z,20.89
2019-02-26T12:54:13.696Z,20.70
2019-02-26T12:56:42.300Z,19.34
2019-02-26T12:59:12.312Z,18.46
2019-02-26T13:01:45.769Z,18.31
2019-02-26T13:04:19.623Z,18.72
2019-02-26T13:06:48.432Z,18.55
2019-02-26T13:09:18.036Z,19.03
2019-02-26T13:12:00.640Z,19.95
2019-02-26T13:14:20.010Z,20.81
2019-02-26T13:16:53.327Z,21.50
2019-02-26T13:19:22.739Z,20.90
2019-02-26T13:21:56.281Z,21.28
2019-02-26T13:24:26.438Z,21.40
2019-02-26T13:26:59.720Z,21.10
2019-02-26T13:29:28.957Z,19.87
2019-02-26T13:32:00.146Z,20.06
2019-02-26T13:34:30.714Z,19.46
2019-02-26T13:37:00.649Z,18.73
2019-02-26T13:39:38.397Z,18.84
2019-02-26T13:42:05.704Z,18.97
2019-02-26T13:44:34.707Z,19.24
2019-02-26T13:47:05.196Z,18.77
2019-02-26T13:49:35.364Z,18.56
2019-02-26T13:52:06.154Z,18.04
2019-02-26T13:54:36.046Z,17.94
2019-02-26T13:57:06.254Z,18.30
2019-02-26T13:59:36.886Z,17.93
2019-02-26T14:02:07.428Z,17.71
2019-02-26T14:04:37.606Z,17.68
2019-02-26T14:07:08.197Z,17.09
2019-02-26T14:09:38.189Z,17.40
2019-02-26T14:12:08.292Z,17.15
2019-02-26T14:14:38.565Z,17.32
2019-02-26T14:17:08.770Z,17.01
2019-02-26T14:19:38.715Z,16.97
2019-02-26T14:22:09.224Z,16.93
2019-02-26T14:24:39.608Z,16.76
2019-02-26T14:27:09.857Z,16.85
2019-02-26T14:29:40.293Z,16.43
2019-02-26T14:32:10.434Z,15.59
2019-02-26T14:34:40.764Z,15.93
2019-02-26T14:37:10.973Z,16.06
2019-02-26T14:39:40.915Z,15.82
2019-02-26T14:42:11.212Z,15.78
2019-02-26T14:44:41.333Z,15.78
2019-02-26T14:47:11.468Z,15.47
2019-02-26T14:49:41.691Z,15.72
2019-02-26T14:52:12.000Z,15.23
2019-02-26T14:54:41.901Z,15.06
2019-02-26T14:57:12.211Z,14.46
2019-02-26T14:59:42.436Z,14.84
2019-02-26T15:02:12.666Z,14.83
2019-02-26T15:04:42.699Z,14.76
2019-02-26T15:07:12.845Z,13.43
2019-02-26T15:09:43.092Z,13.31
2019-02-26T15:12:13.313Z,12.27
2019-02-26T15:14:43.436Z,13.00
2019-02-26T15:17:13.625Z,13.06
2019-02-26T15:19:50.220Z,12.96
2019-02-26T15:22:15.945Z,12.73
2019-02-26T15:24:45.847Z,12.63
2019-02-26T15:27:15.871Z,12.75
2019-02-26T15:29:46.093Z,12.22
2019-02-26T15:32:16.643Z,9.71
2019-02-26T15:34:46.575Z,11.92
2019-02-26T15:37:16.507Z,12.09
2019-02-26T15:39:46.748Z,11.86
2019-02-26T15:42:19.094Z,11.66
2019-02-26T15:44:48.705Z,11.45
2019-02-26T15:47:18.741Z,11.38
2019-02-26T15:49:48.960Z,11.56
2019-02-26T15:52:21.398Z,11.43
2019-02-26T15:54:51.040Z,11.45
2019-02-26T15:57:20.994Z,11.57
2019-02-26T15:59:51.332Z,11.46
2019-02-26T16:02:21.355Z,11.86
2019-02-26T16:04:51.579Z,12.04
2019-02-26T16:07:21.744Z,12.30
2019-02-26T16:09:51.840Z,12.53
2019-02-26T16:12:21.881Z,12.47
2019-02-26T16:14:52.278Z,12.42
2019-02-26T16:17:22.470Z,12.23
2019-02-26T16:19:52.588Z,12.23
2019-02-26T16:22:22.502Z,11.76
2019-02-26T16:24:52.720Z,11.45
2019-02-26T16:27:22.932Z,11.03
2019-02-26T16:29:53.118Z,11.20
2019-02-26T16:32:23.169Z,11.11
2019-02-26T16:34:53.500Z,10.89
2019-02-26T16:37:24.058Z,10.84
2019-02-26T16:39:56.030Z,10.76
2019-02-26T16:42:25.983Z,10.77
2019-02-26T16:44:58.601Z,10.95
2019-02-26T16:47:28.018Z,11.00
2019-02-26T16:49:58.650Z,10.90
2019-02-26T16:52:30.348Z,10.78
2019-02-26T16:55:00.456Z,10.30
2019-02-26T16:57:30.390Z,10.23
2019-02-26T17:00:00.983Z,10.22
2019-02-26T17:02:31.159Z,10.25
2019-02-26T17:05:01.065Z,10.15
2019-02-26T17:07:32.230Z,10.12
2019-02-26T17:10:02.746Z,10.35
2019-02-26T17:12:33.035Z,10.76
2019-02-26T17:15:03.171Z,10.75
2019-02-26T17:17:34.398Z,10.31
2019-02-26T17:20:05.216Z,10.30
2019-02-26T17:22:35.212Z,10.22
2019-02-26T17:25:05.754Z,9.89
2019-02-26T17:27:36.532Z,10.10
2019-02-26T17:30:08.428Z,10.19
2019-02-26T17:32:38.966Z,10.78
2019-02-26T17:35:09.682Z,10.19
2019-02-26T17:37:41.697Z,9.84
2019-02-26T17:40:13.303Z,9.19
2019-02-26T17:42:43.311Z,9.52
2019-02-26T17:45:15.409Z,9.23
2019-02-26T17:47:45.681Z,10.02
2019-02-26T17:50:21.551Z,10.23
2019-02-26T17:52:51.551Z,9.45
2019-02-26T17:55:21.829Z,9.48
2019-02-26T17:57:52.006Z,9.29
2019-02-26T18:00:23.208Z,9.21
2019-02-26T18:02:53.345Z,9.13
2019-02-26T18:05:23.632Z,9.42
2019-02-26T18:07:53.793Z,9.25
2019-02-26T18:10:23.990Z,9.09
2019-02-26T18:12:54.143Z,8.93
2019-02-26T18:15:24.474Z,8.64
2019-02-26T18:17:54.647Z,8.63
2019-02-26T18:20:27.823Z,8.58
2019-02-26T18:22:59.959Z,8.30
2019-02-26T18:25:28.526Z,8.27
2019-02-26T18:27:58.716Z,8.84
2019-02-26T18:30:28.835Z,8.58
2019-02-26T18:32:59.347Z,8.64
2019-02-26T18:35:29.816Z,8.82
2019-02-26T18:37:59.990Z,8.49
2019-02-26T18:40:30.317Z,8.61
2019-02-26T18:43:00.501Z,8.22
2019-02-26T18:45:30.612Z,8.47
2019-02-26T18:48:00.660Z,7.99
2019-02-26T18:50:30.873Z,8.11
2019-02-26T18:53:01.079Z,7.99
2019-02-26T18:55:32.598Z,7.70
2019-02-26T18:58:02.730Z,7.63
2019-02-26T19:00:32.920Z,7.66
2019-02-26T19:03:03.116Z,8.09
2019-02-26T19:05:33.227Z,8.70
2019-02-26T19:08:05.507Z,7.92
2019-02-26T19:10:35.206Z,8.00
2019-02-26T19:13:05.582Z,7.52
2019-02-26T19:15:35.705Z,7.42
2019-02-26T19:18:05.813Z,7.30
2019-02-26T19:20:36.033Z,7.36
2019-02-26T19:23:06.352Z,7.55
2019-02-26T19:25:36.565Z,8.09
2019-02-26T19:28:06.775Z,7.93
2019-02-26T19:30:37.551Z,7.85
2019-02-26T19:33:07.886Z,7.69
2019-02-26T19:35:40.288Z,7.88
2019-02-26T19:38:10.655Z,8.03
2019-02-26T19:40:42.376Z,7.80
2019-02-26T19:43:12.389Z,7.76
2019-02-26T19:45:44.824Z,7.83
2019-02-26T19:48:14.478Z,7.73
2019-02-26T19:50:47.900Z,7.51
2019-02-26T19:53:16.109Z,7.42
2019-02-26T19:55:49.067Z,7.49
2019-02-26T19:58:18.540Z,7.46
2019-02-26T20:00:52.726Z,7.99
2019-02-26T20:03:20.577Z,8.34
2019-02-26T20:05:50.606Z,8.25
2019-02-26T20:08:20.616Z,8.44
2019-02-26T20:10:52.456Z,8.32
2019-02-26T20:13:22.754Z,8.04
2019-02-26T20:15:54.851Z,7.68
2019-02-26T20:18:26.132Z,7.91
2019-02-26T20:20:56.312Z,8.01
2019-02-26T20:23:26.555Z,7.78
2019-02-26T20:25:56.612Z,8.10
2019-02-26T20:28:26.566Z,8.05
2019-02-26T20:30:57.359Z,8.10
2019-02-26T20:33:27.567Z,7.83
2019-02-26T20:35:57.790Z,7.64
2019-02-26T20:38:32.082Z,7.79
2019-02-26T20:40:59.689Z,7.87
2019-02-26T20:43:29.874Z,7.35
2019-02-26T20:45:59.897Z,7.30
2019-02-26T20:48:30.022Z,7.05
2019-02-26T20:51:00.497Z,5.99
2019-02-26T20:53:30.668Z,7.68
2019-02-26T20:56:00.563Z,8.09
2019-02-26T20:58:30.566Z,8.39
2019-02-26T21:01:00.777Z,8.54
2019-02-26T21:03:31.020Z,8.46
2019-02-26T21:06:01.113Z,8.57
2019-02-26T21:08:31.588Z,8.25
2019-02-26T21:11:01.901Z,7.65
2019-02-26T21:13:34.684Z,7.22
2019-02-26T21:16:03.841Z,7.11
2019-02-26T21:18:33.759Z,7.15
2019-02-26T21:21:04.025Z,7.08
2019-02-26T21:23:33.935Z,7.34
2019-02-26T21:26:04.133Z,7.52
2019-02-26T21:28:34.418Z,7.96
2019-02-26T21:31:04.614Z,7.98
2019-02-26T21:33:34.732Z,7.81
2019-02-26T21:36:05.045Z,7.75
2019-02-26T21:38:38.602Z,8.14
2019-02-26T21:41:07.512Z,8.37
2019-02-26T21:43:37.765Z,8.41
2019-02-26T21:46:07.957Z,7.91
2019-02-26T21:48:38.137Z,7.91
2019-02-26T21:51:08.141Z,7.64
2019-02-26T21:53:39.857Z,7.97
2019-02-26T21:56:10.144Z,7.44
2019-02-26T21:58:40.342Z,6.66
2019-02-26T22:01:11.673Z,6.94
2019-02-26T22:03:42.625Z,7.23
2019-02-26T22:06:12.643Z,6.89
2019-02-26T22:08:42.549Z,7.45
2019-02-26T22:11:12.759Z,7.85
2019-02-26T22:13:42.949Z,7.53
2019-02-26T22:16:14.924Z,7.65
2019-02-26T22:18:44.688Z,8.03
2019-02-26T22:21:18.901Z,8.26
2019-02-26T22:23:46.823Z,8.01
2019-02-26T22:26:16.720Z,7.71
2019-02-26T22:28:46.603Z,7.85
2019-02-26T22:31:16.804Z,7.91
2019-02-26T22:33:47.074Z,8.03
2019-02-26T22:36:17.084Z,8.04
2019-02-26T22:38:49.106Z,7.73
2019-02-26T22:41:19.119Z,7.54
2019-02-26T22:43:49.124Z,7.63
2019-02-26T22:46:19.326Z,7.28
2019-02-26T22:48:49.579Z,7.13
2019-02-26T22:51:19.475Z,7.14
2019-02-26T22:53:49.461Z,7.48
2019-02-26T22:56:23.907Z,7.09
2019-02-26T22:58:51.557Z,6.98
2019-02-26T23:01:36.314Z,6.84
2019-02-26T23:04:03.689Z,6.95
2019-02-26T23:06:33.887Z,6.95
2019-02-26T23:09:04.742Z,6.83
2019-02-26T23:11:35.432Z,6.92
2019-02-26T23:14:05.913Z,6.80
2019-02-26T23:16:37.092Z,6.80
2019-02-26T23:19:07.983Z,7.00
2019-02-26T23:21:38.772Z,6.87
2019-02-26T23:24:09.172Z,6.86
2019-02-26T23:26:41.697Z,6.96
2019-02-26T23:29:11.475Z,7.04
2019-02-26T23:31:42.066Z,7.36
2019-02-26T23:34:12.249Z,7.47
2019-02-26T23:36:42.876Z,6.81
2019-02-26T23:39:15.933Z,6.97
2019-02-26T23:41:46.265Z,6.67
2019-02-26T23:44:18.077Z,6.75
2019-02-26T23:46:48.535Z,7.11
2019-02-26T23:49:18.530Z,6.94
2019-02-26T23:51:51.006Z,6.70
2019-02-26T23:54:21.036Z,7.17
2019-02-26T23:56:52.020Z,6.60
2019-02-26T23:59:22.612Z,6.69
